Time;durP1;ratioP1;P1;durP2;ratioP2;P2;SDS_P1;SDS_P2;PMS_P1;PMS_P2;Temp;Humidity;BMP_temperature;BMP_pressure;BME280_temperature;BME280_humidity;BME280_pressure;Samples;Min_cycle;Max_cycle;Signal;HPM_P1;HPM_P2
2022/09/02 00:01:28;;;;;;;2.37;1.20;;;19.90;53.70;;;;;;2351466;54;20921;-69
2022/09/02 00:03:57;;;;;;;2.62;1.20;;;19.90;54.00;;;;;;2366670;53;20940;-67
2022/09/02 00:06:23;;;;;;;2.37;1.20;;;19.80;53.70;;;;;;2364831;54;21011;-66
2022/09/02 00:08:52;;;;;;;2.10;1.05;;;19.80;53.70;;;;;;2609346;52;21053;-66
2022/09/02 00:11:24;;;;;;;2.67;1.50;;;19.80;53.70;;;;;;2365132;54;21615;-67
2022/09/02 00:13:51;;;;;;;2.60;1.35;;;19.70;53.90;;;;;;2365781;53;20904;-66
2022/09/02 00:16:17;;;;;;;2.33;1.23;;;19.70;54.00;;;;;;2369294;53;20963;-69
2022/09/02 00:18:44;;;;;;;2.70;1.50;;;19.70;53.90;;;;;;2365981;54;21017;-68
2022/09/02 00:21:12;;;;;;;3.17;1.60;;;19.70;54.00;;;;;;2365540;54;21777;-69
2022/09/02 00:23:39;;;;;;;2.50;1.30;;;19.70;54.10;;;;;;2362160;53;21783;-71
2022/09/02 00:26:05;;;;;;;2.55;1.42;;;19.60;54.00;;;;;;2363741;54;21103;-68
2022/09/02 00:28:31;;;;;;;2.50;1.10;;;19.60;54.00;;;;;;2366099;54;21919;-70
2022/09/02 00:30:58;;;;;;;3.75;1.50;;;19.60;54.00;;;;;;2366173;54;20924;-67
2022/09/02 00:33:24;;;;;;;2.50;1.20;;;19.60;54.00;;;;;;2380253;52;21002;-69
2022/09/02 00:35:50;;;;;;;2.10;1.10;;;19.50;54.00;;;;;;2365819;53;20991;-71
2022/09/02 00:38:16;;;;;;;2.67;1.37;;;19.50;54.00;;;;;;2366068;53;21448;-69
2022/09/02 00:40:48;;;;;;;3.22;1.17;;;19.50;54.10;;;;;;2366295;53;20943;-67
2022/09/02 00:43:25;;;;;;;2.30;1.10;;;19.50;54.10;;;;;;2365787;54;21746;-67
2022/09/02 00:45:52;;;;;;;2.92;1.25;;;19.40;54.20;;;;;;2361660;54;20995;-67
2022/09/02 00:48:27;;;;;;;2.30;1.40;;;19.40;54.00;;;;;;2366730;54;20967;-69
2022/09/02 00:50:54;;;;;;;2.50;1.25;;;19.40;54.30;;;;;;2360649;53;20935;-67
2022/09/02 00:53:20;;;;;;;1.83;1.05;;;19.40;54.30;;;;;;2360585;53;20940;-68
2022/09/02 00:55:50;;;;;;;2.60;1.40;;;19.30;54.20;;;;;;2369904;52;20930;-67
2022/09/02 00:58:32;;;;;;;2.67;1.60;;;19.30;54.30;;;;;;2365059;54;20928;-69
2022/09/02 01:00:58;;;;;;;2.55;1.27;;;19.30;54.70;;;;;;2366729;54;20975;-70
2022/09/02 01:03:26;;;;;;;2.92;1.30;;;19.30;54.40;;;;;;2366603;54;21441;-68
2022/09/02 01:05:53;;;;;;;2.47;1.30;;;19.20;54.30;;;;;;2361299;54;20934;-67
2022/09/02 01:08:24;;;;;;;2.30;1.00;;;19.20;54.30;;;;;;2363295;54;21003;-69
2022/09/02 01:10:54;;;;;;;2.00;1.10;;;19.20;54.40;;;;;;2366593;53;21455;-67
2022/09/02 01:13:25;;;;;;;2.25;1.23;;;19.20;54.40;;;;;;2361623;54;20947;-69
2022/09/02 01:15:54;;;;;;;3.15;1.20;;;19.10;54.40;;;;;;2596131;52;21020;-68
2022/09/02 01:18:28;;;;;;;2.35;1.17;;;19.10;55.00;;;;;;2346786;53;21505;-70
2022/09/02 01:20:55;;;;;;;2.10;1.08;;;19.10;54.40;;;;;;2365329;54;20943;-68
2022/09/02 01:23:30;;;;;;;2.42;1.37;;;19.10;54.40;;;;;;2366050;53;21745;-68
2022/09/02 01:25:57;;;;;;;4.90;1.25;;;19.00;55.10;;;;;;2366149;54;20935;-66
2022/09/02 01:28:24;;;;;;;2.55;1.30;;;19.00;54.40;;;;;;2348034;53;20988;-68
2022/09/02 01:31:26;;;;;;;2.20;1.20;;;19.00;54.40;;;;;;2611978;52;20932;-72
2022/09/02 01:33:53;;;;;;;2.17;1.20;;;19.00;54.70;;;;;;2365868;54;20987;-70
2022/09/02 01:36:23;;;;;;;2.60;1.20;;;18.90;54.30;;;;;;2364209;54;20971;-68
2022/09/02 01:38:49;;;;;;;2.35;1.00;;;18.90;54.50;;;;;;2366413;54;20988;-71
2022/09/02 01:41:16;;;;;;;2.72;1.23;;;18.90;54.50;;;;;;2366461;54;20936;-71
2022/09/02 01:43:43;;;;;;;2.67;1.20;;;18.80;54.40;;;;;;2362993;53;21006;-67
2022/09/02 01:46:09;;;;;;;2.50;1.40;;;18.80;54.50;;;;;;2363452;53;20951;-70
2022/09/02 01:48:36;;;;;;;3.05;1.30;;;18.80;54.50;;;;;;2361814;54;21809;-70
2022/09/02 01:51:03;;;;;;;2.03;1.12;;;18.80;54.70;;;;;;2366604;54;20943;-67
2022/09/02 01:53:29;;;;;;;2.17;1.10;;;18.70;54.60;;;;;;2361563;54;20935;-69
2022/09/02 01:55:59;;;;;;;3.08;1.35;;;18.70;54.60;;;;;;2366465;53;21975;-68
2022/09/02 01:58:25;;;;;;;2.50;1.50;;;18.70;54.70;;;;;;2366598;54;21015;-70
2022/09/02 02:00:51;;;;;;;3.67;1.30;;;18.60;54.90;;;;;;2366475;53;20935;-69
2022/09/02 02:03:18;;;;;;;2.30;1.10;;;18.70;55.00;;;;;;2366150;53;20923;-67
2022/09/02 02:05:44;;;;;;;2.35;1.23;;;18.60;54.90;;;;;;2366045;53;20979;-69
2022/09/02 02:08:14;;;;;;;1.70;0.80;;;18.60;54.90;;;;;;2367132;53;20924;-71
2022/09/02 02:10:59;;;;;;;2.35;1.10;;;18.60;54.90;;;;;;2366250;54;20964;-74
2022/09/02 02:13:26;;;;;;;2.85;1.35;;;18.60;55.00;;;;;;2360254;54;20919;-70
2022/09/02 02:15:52;;;;;;;2.28;1.15;;;18.50;54.80;;;;;;2366761;54;20936;-68
2022/09/02 02:18:18;;;;;;;3.55;1.62;;;18.50;54.80;;;;;;2410318;52;21362;-70
2022/09/02 02:20:45;;;;;;;2.42;1.17;;;18.50;54.90;;;;;;2361459;54;20936;-68
2022/09/02 02:23:12;;;;;;;2.40;1.10;;;18.50;55.00;;;;;;2366161;54;20920;-71
2022/09/02 02:25:38;;;;;;;2.20;1.20;;;18.50;55.00;;;;;;2484134;52;21003;-70
2022/09/02 02:28:29;;;;;;;1.90;1.00;;;18.40;54.90;;;;;;2361750;54;20944;-70
2022/09/02 02:31:26;;;;;;;2.40;1.02;;;18.40;55.10;;;;;;2365591;53;20967;-71
2022/09/02 02:34:02;;;;;;;2.05;0.98;;;18.40;55.10;;;;;;2364778;54;21066;-74
2022/09/02 02:36:28;;;;;;;2.30;0.98;;;18.40;55.00;;;;;;2365611;54;21885;-69
2022/09/02 02:38:55;;;;;;;2.97;1.33;;;18.40;54.90;;;;;;2366135;54;20995;-70
2022/09/02 02:41:21;;;;;;;3.25;0.95;;;18.40;55.00;;;;;;2359947;54;20927;-74
2022/09/02 02:43:48;;;;;;;2.50;1.20;;;18.30;54.90;;;;;;2560687;52;21078;-70
2022/09/02 02:46:14;;;;;;;1.80;0.90;;;18.30;54.90;;;;;;2355866;53;21479;-71
2022/09/02 02:48:41;;;;;;;2.20;1.10;;;18.20;54.80;;;;;;2343407;53;20974;-71
2022/09/02 02:51:07;;;;;;;2.37;1.12;;;18.20;54.80;;;;;;2363355;54;21433;-70
2022/09/02 02:53:35;;;;;;;2.55;1.45;;;18.20;54.80;;;;;;2363048;53;21020;-71
2022/09/02 02:56:01;;;;;;;2.30;1.20;;;18.20;55.20;;;;;;2363071;54;21006;-70
2022/09/02 02:58:36;;;;;;;2.33;1.10;;;18.20;55.10;;;;;;2360749;54;21456;-70
2022/09/02 03:01:03;;;;;;;2.37;1.27;;;18.10;55.10;;;;;;2616834;52;21892;-71
2022/09/02 03:03:30;;;;;;;2.62;1.02;;;18.10;55.00;;;;;;2364924;54;21015;-70
2022/09/02 03:05:56;;;;;;;2.17;1.10;;;18.10;55.00;;;;;;2364447;54;21015;-71
2022/09/02 03:08:31;;;;;;;2.20;1.02;;;18.00;54.90;;;;;;2365634;54;20888;-69
2022/09/02 03:10:58;;;;;;;2.50;1.27;;;18.00;55.10;;;;;;2363439;54;21007;-71
2022/09/02 03:13:24;;;;;;;2.62;1.37;;;18.00;55.00;;;;;;2364880;53;20932;-71
2022/09/02 03:15:51;;;;;;;4.05;1.40;;;18.00;55.10;;;;;;2365940;53;20939;-70
2022/09/02 03:18:18;;;;;;;2.67;1.20;;;17.90;55.00;;;;;;2340512;54;21373;-71
2022/09/02 03:20:47;;;;;;;3.22;1.50;;;17.90;55.00;;;;;;2399629;53;21437;-71
2022/09/02 03:23:14;;;;;;;2.50;1.20;;;17.90;55.10;;;;;;2455074;52;21484;-71
2022/09/02 03:25:41;;;;;;;2.55;1.10;;;17.90;55.20;;;;;;2411759;53;20956;-71
2022/09/02 03:28:08;;;;;;;2.22;1.05;;;17.90;55.10;;;;;;2343696;54;21686;-69
2022/09/02 03:30:34;;;;;;;3.17;1.30;;;17.80;55.00;;;;;;2344375;54;21523;-73
2022/09/02 03:33:04;;;;;;;2.85;1.50;;;17.80;55.00;;;;;;2340306;53;20944;-70
2022/09/02 03:35:38;;;;;;;2.33;1.33;;;17.90;55.10;;;;;;2343441;54;21085;-73
2022/09/02 03:38:04;;;;;;;2.20;1.20;;;17.80;55.20;;;;;;2344570;53;21013;-68
2022/09/02 03:40:31;;;;;;;3.05;1.30;;;17.80;55.10;;;;;;2343382;53;21048;-71
2022/09/02 03:42:57;;;;;;;2.60;1.20;;;17.70;55.00;;;;;;2562099;53;20980;-70
2022/09/02 03:45:26;;;;;;;3.42;1.40;;;17.70;55.10;;;;;;2341356;53;20987;-71
2022/09/02 03:47:53;;;;;;;3.17;1.60;;;17.70;55.20;;;;;;2365888;54;20928;-69
2022/09/02 03:50:27;;;;;;;1.85;0.90;;;17.60;55.20;;;;;;2418069;52;21555;-70
2022/09/02 03:52:53;;;;;;;2.50;1.23;;;17.60;55.20;;;;;;2357421;53;20963;-71
2022/09/02 03:55:36;;;;;;;2.03;1.00;;;17.60;55.20;;;;;;2359295;52;20964;-67
2022/09/02 03:58:14;;;;;;;2.25;1.08;;;17.50;55.40;;;;;;2355121;54;21049;-71
2022/09/02 04:01:05;;;;;;;2.35;1.23;;;17.60;55.40;;;;;;2363877;53;20924;-69
2022/09/02 04:03:31;;;;;;;1.95;1.00;;;17.50;55.40;;;;;;2365256;53;20920;-70
2022/09/02 04:05:58;;;;;;;2.25;1.10;;;17.50;55.20;;;;;;2365473;53;21003;-70
2022/09/02 04:08:24;;;;;;;4.10;1.17;;;17.40;55.10;;;;;;2365632;53;20935;-69
2022/09/02 04:10:50;;;;;;;2.35;1.15;;;17.40;55.20;;;;;;2365740;54;21452;-69
2022/09/02 04:13:18;;;;;;;2.00;1.00;;;17.40;55.30;;;;;;2617017;52;21011;-70
2022/09/02 04:15:46;;;;;;;2.40;1.15;;;17.40;55.30;;;;;;2364015;53;21041;-70
2022/09/02 04:18:14;;;;;;;2.22;1.05;;;17.40;55.30;;;;;;2366775;54;21026;-74
2022/09/02 04:21:00;;;;;;;2.92;1.20;;;17.30;55.30;;;;;;2360222;53;20988;-70
2022/09/02 04:23:29;;;;;;;1.73;0.85;;;17.30;55.40;;;;;;2430890;52;21007;-68
2022/09/02 04:25:56;;;;;;;2.30;1.02;;;17.30;55.30;;;;;;2352696;53;20996;-70
2022/09/02 04:28:23;;;;;;;2.30;1.20;;;17.30;55.30;;;;;;2345837;53;21401;-69
2022/09/02 04:30:49;;;;;;;2.50;1.40;;;17.30;55.30;;;;;;2357187;54;20952;-70
2022/09/02 04:33:16;;;;;;;2.20;1.20;;;17.30;55.60;;;;;;2345355;53;21445;-69
2022/09/02 04:35:43;;;;;;;2.10;1.05;;;17.20;55.50;;;;;;2372734;52;21010;-72
2022/09/02 04:38:09;;;;;;;2.42;1.05;;;17.20;55.50;;;;;;2366352;54;21058;-74
2022/09/02 04:40:40;;;;;;;2.10;1.15;;;17.20;55.40;;;;;;2617655;52;20992;-73
2022/09/02 04:43:07;;;;;;;4.28;1.27;;;17.20;55.40;;;;;;2343065;54;21448;-68
2022/09/02 04:45:39;;;;;;;2.35;1.10;;;17.20;55.40;;;;;;2588642;53;20930;-71
2022/09/02 04:48:06;;;;;;;2.60;0.98;;;17.10;55.30;;;;;;2343167;54;20919;-71
2022/09/02 04:50:34;;;;;;;4.32;1.30;;;17.10;55.30;;;;;;2341779;54;21077;-71
2022/09/02 04:53:34;;;;;;;2.40;1.30;;;17.10;55.60;;;;;;2344548;54;21049;-71
2022/09/02 04:56:03;;;;;;;2.42;1.20;;;17.10;55.80;;;;;;2344895;54;20952;-69
2022/09/02 04:58:30;;;;;;;2.12;0.95;;;17.10;55.60;;;;;;2342843;54;20944;-70
2022/09/02 05:00:57;;;;;;;2.85;1.10;;;17.10;55.50;;;;;;2344848;54;21025;-74
2022/09/02 05:03:23;;;;;;;2.15;0.95;;;17.00;55.40;;;;;;2379487;52;20965;-73
2022/09/02 05:06:04;;;;;;;2.78;1.10;;;17.00;55.40;;;;;;2341181;54;20944;-71
2022/09/02 05:08:35;;;;;;;2.28;1.10;;;17.00;55.60;;;;;;2586949;52;20938;-69
2022/09/02 05:11:05;;;;;;;3.25;1.00;;;17.00;55.50;;;;;;2346142;53;20979;-71
2022/09/02 05:13:32;;;;;;;2.45;1.15;;;16.90;55.50;;;;;;2588572;52;20958;-70
2022/09/02 05:15:58;;;;;;;2.47;1.00;;;16.90;55.50;;;;;;2343587;54;21477;-70
2022/09/02 05:18:24;;;;;;;2.03;0.90;;;16.90;55.50;;;;;;2589211;53;21643;-69
2022/09/02 05:20:51;;;;;;;2.60;1.20;;;16.90;55.60;;;;;;2529560;53;21321;-69
2022/09/02 05:23:42;;;;;;;1.90;1.00;;;16.90;55.70;;;;;;2439258;53;20911;-70
2022/09/02 05:26:11;;;;;;;2.10;1.15;;;16.90;56.00;;;;;;2341995;54;20915;-69
2022/09/02 05:28:38;;;;;;;2.17;1.02;;;16.80;55.70;;;;;;2342622;54;20991;-71
2022/09/02 05:31:14;;;;;;;2.50;1.00;;;16.80;55.70;;;;;;2342517;54;20947;-70
2022/09/02 05:33:40;;;;;;;2.62;1.10;;;16.80;55.80;;;;;;2342898;54;21017;-69
2022/09/02 05:36:08;;;;;;;2.25;1.08;;;16.80;55.70;;;;;;2333149;54;21071;-70
2022/09/02 05:38:34;;;;;;;1.83;1.00;;;16.80;55.70;;;;;;2319684;53;20945;-70
2022/09/02 05:41:08;;;;;;;3.03;1.10;;;16.80;55.70;;;;;;2605731;52;21480;-71
2022/09/02 05:43:43;;;;;;;1.92;0.90;;;16.80;55.70;;;;;;2357949;53;21002;-70
2022/09/02 05:46:11;;;;;;;1.75;0.95;;;16.80;55.70;;;;;;2365425;53;20995;-71
2022/09/02 05:51:32;;;;;;;2.30;1.10;;;16.70;55.70;;;;;;2409123;53;21857;-69
2022/09/02 05:54:00;;;;;;;2.03;1.00;;;16.70;55.80;;;;;;2343415;54;20935;-70
2022/09/02 05:56:28;;;;;;;2.05;0.93;;;16.70;55.70;;;;;;2342986;54;20905;-71
2022/09/02 05:58:55;;;;;;;2.72;1.15;;;16.70;55.80;;;;;;2342985;54;20931;-71
2022/09/02 06:01:21;;;;;;;2.42;1.20;;;16.70;55.90;;;;;;2324468;54;20971;-70
2022/09/02 06:03:49;;;;;;;2.70;1.30;;;16.70;55.90;;;;;;2343880;53;20958;-70
2022/09/02 06:06:15;;;;;;;2.40;1.23;;;16.70;56.00;;;;;;2401882;53;22528;-70
2022/09/02 06:08:42;;;;;;;2.28;1.05;;;16.70;56.10;;;;;;2336625;53;20913;-70
2022/09/02 06:11:09;;;;;;;2.00;1.00;;;16.70;56.20;;;;;;2342955;53;20989;-71
2022/09/02 06:13:37;;;;;;;2.72;1.42;;;16.70;56.30;;;;;;2342547;53;20994;-71
2022/09/02 06:16:04;;;;;;;2.80;1.20;;;16.70;56.40;;;;;;2362115;54;20977;-68
2022/09/02 06:18:30;;;;;;;3.60;1.40;;;16.70;56.40;;;;;;2549062;52;21620;-71
2022/09/02 06:20:56;;;;;;;2.53;1.35;;;16.80;56.60;;;;;;2366852;53;20972;-69
2022/09/02 06:23:24;;;;;;;3.17;1.50;;;16.80;56.80;;;;;;2368398;53;20993;-71
2022/09/02 06:25:50;;;;;;;2.50;1.35;;;16.80;56.90;;;;;;2371271;54;21009;-71
2022/09/02 06:28:16;;;;;;;3.08;1.60;;;16.80;56.90;;;;;;2353385;53;20977;-71
2022/09/02 06:30:44;;;;;;;2.40;1.20;;;16.90;57.10;;;;;;2496990;52;20942;-70
2022/09/02 06:33:11;;;;;;;2.72;1.65;;;16.90;57.20;;;;;;2623012;52;20942;-72
2022/09/02 06:35:39;;;;;;;2.90;1.40;;;17.00;57.30;;;;;;2370886;53;20969;-71
2022/09/02 06:38:05;;;;;;;3.05;1.42;;;17.00;57.40;;;;;;2369229;53;21524;-70
2022/09/02 06:40:32;;;;;;;2.80;1.50;;;17.00;57.40;;;;;;2370152;53;21727;-72
2022/09/02 06:42:58;;;;;;;2.53;1.40;;;17.10;57.50;;;;;;2371562;54;21759;-70
2022/09/02 06:45:24;;;;;;;2.87;1.42;;;17.20;57.70;;;;;;2369575;53;20908;-70
2022/09/02 06:47:52;;;;;;;2.30;1.17;;;17.20;57.70;;;;;;2463361;53;20961;-70
2022/09/02 06:50:18;;;;;;;2.40;1.30;;;17.30;57.70;;;;;;2363896;53;21309;-70
2022/09/02 06:52:45;;;;;;;2.42;1.20;;;17.30;57.80;;;;;;2352060;53;20937;-71
2022/09/02 06:55:11;;;;;;;2.83;1.60;;;17.40;57.80;;;;;;2369052;53;21013;-70
2022/09/02 06:57:38;;;;;;;3.17;1.40;;;17.50;58.00;;;;;;2370386;54;20934;-70
2022/09/02 07:00:06;;;;;;;3.37;1.60;;;17.50;58.00;;;;;;2371783;54;21664;-71
2022/09/02 07:02:35;;;;;;;2.92;1.42;;;17.60;58.20;;;;;;2370914;54;20938;-70
2022/09/02 07:05:14;;;;;;;2.80;1.40;;;17.70;58.30;;;;;;2371539;54;20942;-72
2022/09/02 07:07:41;;;;;;;2.30;1.40;;;17.80;58.30;;;;;;2373312;53;20920;-75
2022/09/02 07:10:09;;;;;;;2.33;1.15;;;17.80;58.30;;;;;;2370378;53;21454;-70
2022/09/02 07:12:38;;;;;;;2.60;1.23;;;17.90;58.30;;;;;;2371107;54;20981;-71
2022/09/02 07:15:05;;;;;;;2.65;1.75;;;18.00;58.40;;;;;;2348707;53;20930;-72
2022/09/02 07:17:31;;;;;;;2.72;1.52;;;18.10;58.50;;;;;;2440717;52;20926;-70
2022/09/02 07:19:59;;;;;;;3.28;1.65;;;18.20;58.60;;;;;;2370815;54;20937;-70
2022/09/02 07:22:26;;;;;;;3.10;1.70;;;18.30;58.60;;;;;;2371065;53;21005;-71
2022/09/02 07:24:53;;;;;;;2.80;1.40;;;18.40;58.70;;;;;;2370526;54;20986;-71
2022/09/02 07:27:20;;;;;;;2.55;1.27;;;18.50;58.70;;;;;;2371499;53;20957;-72
2022/09/02 07:29:47;;;;;;;3.37;1.77;;;18.60;58.80;;;;;;2371387;54;20910;-70
2022/09/02 07:32:15;;;;;;;4.68;1.85;;;18.60;58.80;;;;;;2621010;52;20957;-69
2022/09/02 07:34:42;;;;;;;5.12;1.80;;;18.80;59.50;;;;;;2370891;54;21005;-68
2022/09/02 07:37:09;;;;;;;3.95;2.42;;;18.80;58.80;;;;;;2370496;53;20946;-68
2022/09/02 07:39:36;;;;;;;3.05;1.62;;;18.90;58.90;;;;;;2371058;53;21395;-70
2022/09/02 07:42:03;;;;;;;3.30;2.08;;;19.00;59.00;;;;;;2371321;53;20937;-69
2022/09/02 07:44:31;;;;;;;3.25;1.80;;;19.10;58.90;;;;;;2371079;54;20949;-68
2022/09/02 07:46:57;;;;;;;2.33;1.25;;;19.20;58.70;;;;;;2371299;54;20949;-69
2022/09/02 07:49:23;;;;;;;2.47;1.15;;;19.30;58.60;;;;;;2371029;53;20978;-67
2022/09/02 07:51:50;;;;;;;2.90;1.67;;;19.40;58.40;;;;;;2421748;52;21493;-68
2022/09/02 07:54:18;;;;;;;2.05;1.15;;;19.50;58.30;;;;;;2398575;52;20950;-70
2022/09/02 07:56:44;;;;;;;2.30;1.10;;;19.60;58.20;;;;;;2569100;52;21478;-70
2022/09/02 07:59:11;;;;;;;2.40;1.17;;;19.70;58.10;;;;;;2362955;54;21040;-69
2022/09/02 08:01:37;;;;;;;2.22;1.15;;;19.70;57.90;;;;;;2370741;54;21327;-69
2022/09/02 08:04:05;;;;;;;2.60;1.10;;;19.80;57.90;;;;;;2371332;53;20921;-70
2022/09/02 08:06:32;;;;;;;2.75;1.17;;;19.90;57.80;;;;;;2464036;52;20989;-71
2022/09/02 08:09:34;;;;;;;2.12;1.02;;;20.00;57.70;;;;;;2364698;53;21846;-70
2022/09/02 08:12:01;;;;;;;2.62;1.30;;;20.10;57.30;;;;;;2371245;54;20914;-70
2022/09/02 08:14:28;;;;;;;2.62;1.40;;;20.10;57.40;;;;;;2370870;53;20973;-69
2022/09/02 08:16:55;;;;;;;2.62;1.40;;;20.20;57.50;;;;;;2371166;53;20925;-69
2022/09/02 08:19:22;;;;;;;2.60;1.40;;;20.30;57.50;;;;;;2371174;54;21504;-70
2022/09/02 08:21:48;;;;;;;2.30;1.20;;;20.40;57.30;;;;;;2370753;54;20954;-69
2022/09/02 08:24:15;;;;;;;3.15;1.40;;;20.40;57.30;;;;;;2371025;54;20950;-72
2022/09/02 08:27:31;;;;;;;2.35;1.30;;;20.50;57.30;;;;;;2370908;54;21310;-69
2022/09/02 08:29:57;;;;;;;2.33;1.10;;;20.60;57.20;;;;;;2370899;53;20942;-69
2022/09/02 08:32:24;;;;;;;2.42;1.40;;;20.70;57.20;;;;;;2530362;52;21025;-67
2022/09/02 08:34:50;;;;;;;2.45;1.17;;;20.80;57.20;;;;;;2371485;53;20922;-70
2022/09/02 08:37:17;;;;;;;3.67;1.37;;;20.90;57.10;;;;;;2370963;53;21274;-69
2022/09/02 08:39:46;;;;;;;2.10;1.08;;;21.00;57.10;;;;;;2611219;52;21017;-70
2022/09/02 08:42:26;;;;;;;2.08;1.17;;;21.10;57.10;;;;;;2346254;53;20960;-69
2022/09/02 08:44:56;;;;;;;2.28;1.25;;;21.20;56.80;;;;;;2370711;54;20917;-69
2022/09/02 08:50:09;;;;;;;3.05;1.30;;;21.20;56.90;;;;;;2322289;51;22881;-72
2022/09/02 08:54:02;;;;;;;2.55;1.40;;;21.40;56.90;;;;;;2344934;54;20956;-71
2022/09/02 08:56:31;;;;;;;2.45;1.20;;;21.50;56.80;;;;;;2572071;53;21007;-71
2022/09/02 08:58:58;;;;;;;2.80;1.25;;;21.70;56.80;;;;;;2328606;53;21028;-71
2022/09/02 09:04:26;;;;;;;2.40;1.25;;;21.80;56.80;;;;;;2325722;53;20931;-71
2022/09/02 09:07:06;;;;;;;1.90;0.80;;;22.00;56.50;;;;;;2322033;53;21392;-69
2022/09/02 09:13:36;;;;;;;2.40;0.98;;;22.10;56.40;;;;;;2313807;54;20961;-68
2022/09/02 09:16:39;;;;;;;2.25;0.82;;;22.30;56.30;;;;;;2310100;53;21047;-70
2022/09/02 09:19:15;;;;;;;1.83;0.82;;;22.50;55.70;;;;;;2528530;53;20972;-70
2022/09/02 09:21:42;;;;;;;2.75;0.98;;;22.60;56.00;;;;;;2548402;53;20979;-70
2022/09/02 09:24:43;;;;;;;2.12;1.02;;;22.60;55.80;;;;;;2415753;53;21441;-69
2022/09/02 09:27:18;;;;;;;2.80;1.12;;;22.80;55.10;;;;;;2303118;53;20944;-67
2022/09/02 09:29:44;;;;;;;1.65;0.80;;;22.80;55.40;;;;;;2302571;53;21015;-69
2022/09/02 09:32:33;;;;;;;2.17;1.10;;;23.00;55.30;;;;;;2309434;53;20976;-69
2022/09/02 09:35:02;;;;;;;2.03;0.90;;;23.10;54.50;;;;;;2334289;54;20941;-69
2022/09/02 09:37:30;;;;;;;2.22;0.80;;;23.20;54.90;;;;;;2334058;54;20956;-68
2022/09/02 09:40:29;;;;;;;2.10;1.05;;;23.30;55.00;;;;;;2334735;54;20932;-70
2022/09/02 09:43:16;;;;;;;1.65;0.70;;;23.40;54.30;;;;;;2327876;54;20999;-68
2022/09/02 09:45:46;;;;;;;2.20;0.80;;;23.50;53.80;;;;;;2349106;53;20932;-69
2022/09/02 09:48:30;;;;;;;2.50;0.80;;;23.60;54.20;;;;;;2339623;53;21079;-71
2022/09/02 09:51:54;;;;;;;2.30;0.80;;;23.70;53.50;;;;;;2337545;54;21000;-69
2022/09/02 09:54:20;;;;;;;1.77;0.80;;;23.80;53.00;;;;;;2338427;54;20984;-72
2022/09/02 09:56:46;;;;;;;1.52;0.77;;;23.90;53.60;;;;;;2347038;54;20985;-71
2022/09/02 09:59:55;;;;;;;1.40;0.70;;;24.00;53.30;;;;;;2435316;52;20958;-68
2022/09/02 10:02:26;;;;;;;2.08;0.85;;;24.10;52.20;;;;;;2365005;53;20950;-68
2022/09/02 10:05:08;;;;;;;1.90;0.80;;;24.20;52.70;;;;;;2365300;54;21029;-68
2022/09/02 10:07:39;;;;;;;1.52;0.65;;;24.30;52.70;;;;;;2365279;53;21069;-69
2022/09/02 10:10:22;;;;;;;2.30;0.77;;;24.30;52.80;;;;;;2616739;52;20927;-71
2022/09/02 10:12:49;;;;;;;;;;;24.40;51.90;;;;;;2368449;53;20994;-69
2022/09/02 10:15:37;;;;;;;1.30;0.70;;;24.60;52.50;;;;;;2365589;53;20058;-69
2022/09/02 10:18:13;;;;;;;1.50;0.60;;;24.60;52.50;;;;;;2364991;53;21013;-69
2022/09/02 10:22:01;;;;;;;2.55;0.90;;;24.80;52.30;;;;;;2357089;53;21590;-69
2022/09/02 10:30:56;;;;;;;1.80;0.73;;;24.80;52.10;;;;;;2515978;52;20965;-70
2022/09/02 10:36:26;;;;;;;1.80;0.70;;;25.00;51.80;;;;;;2585537;52;20961;-72
2022/09/02 10:38:58;;;;;;;1.98;0.73;;;25.30;51.20;;;;;;2364705;53;20981;-70
2022/09/02 10:41:45;;;;;;;1.73;0.80;;;25.40;51.60;;;;;;2364411;53;20978;-70
2022/09/02 10:44:25;;;;;;;2.08;0.80;;;25.50;50.30;;;;;;2365215;53;21066;-70
2022/09/02 10:47:05;;;;;;;2.25;0.95;;;25.60;50.30;;;;;;2365207;53;21930;-68
2022/09/02 10:54:52;;;;;;;1.30;0.60;;;25.60;49.90;;;;;;2365106;53;20987;-70
2022/09/02 10:58:09;;;;;;;1.62;0.57;;;25.80;50.30;;;;;;2363149;53;20938;-70
2022/09/02 11:00:36;;;;;;;1.48;0.65;;;25.90;49.20;;;;;;2364999;53;20934;-72
2022/09/02 11:03:23;;;;;;;2.22;0.80;;;26.00;50.00;;;;;;2365154;53;20902;-69
2022/09/02 11:06:54;;;;;;;1.52;0.70;;;26.00;49.10;;;;;;2365369;53;20942;-70
2022/09/02 11:09:53;;;;;;;2.15;0.70;;;26.10;49.20;;;;;;2364121;53;21456;-71
2022/09/02 11:12:30;;;;;;;2.42;0.88;;;26.20;48.40;;;;;;2365173;53;20935;-69
2022/09/02 11:17:58;;;;;;;1.90;0.62;;;26.30;48.90;;;;;;2433336;52;20993;-68
2022/09/02 11:20:44;;;;;;;1.67;0.68;;;26.40;48.90;;;;;;2365680;54;21395;-71
2022/09/02 11:23:48;;;;;;;1.48;0.60;;;26.50;48.60;;;;;;2338519;53;21040;-69
2022/09/02 11:29:47;;;;;;;2.75;0.60;;;26.50;48.40;;;;;;2582317;53;20961;-70
2022/09/02 11:32:20;;;;;;;1.17;0.50;;;26.50;48.70;;;;;;2350710;53;20946;-69
2022/09/02 11:34:48;;;;;;;1.23;0.50;;;26.70;48.40;;;;;;2362632;53;20984;-70
2022/09/02 11:37:26;;;;;;;1.65;0.70;;;26.70;48.10;;;;;;2616325;52;20914;-69
2022/09/02 11:39:59;;;;;;;1.55;0.60;;;26.80;46.90;;;;;;2364827;53;20934;-70
2022/09/02 11:46:13;;;;;;;1.10;0.60;;;26.90;47.80;;;;;;2469431;52;20994;-69
2022/09/02 11:49:16;;;;;;;1.30;0.60;;;26.90;47.00;;;;;;2615876;52;21773;-69
2022/09/02 11:52:00;;;;;;;1.00;0.52;;;27.10;46.70;;;;;;2338023;54;20929;-69
2022/09/02 11:54:28;;;;;;;1.25;0.60;;;27.20;46.70;;;;;;2480946;53;20924;-70
2022/09/02 11:56:58;;;;;;;1.62;0.80;;;27.20;47.10;;;;;;2337084;54;20917;-68
2022/09/02 12:00:45;;;;;;;1.23;0.60;;;27.20;46.50;;;;;;2339003;54;20999;-69
2022/09/02 12:03:13;;;;;;;1.20;0.52;;;27.30;45.60;;;;;;2336053;54;21047;-72
2022/09/02 12:06:14;;;;;;;3.65;0.90;;;27.30;46.30;;;;;;2336646;54;20924;-69
2022/09/02 12:09:03;;;;;;;1.30;0.60;;;27.40;45.10;;;;;;2336792;53;20992;-70
2022/09/02 12:11:39;;;;;;;2.10;0.73;;;27.50;45.00;;;;;;2337503;53;21000;-70
2022/09/02 12:14:05;;;;;;;2.22;0.57;;;27.50;45.30;;;;;;2340812;54;20936;-70
2022/09/02 12:16:40;;;;;;;2.75;0.90;;;27.50;45.40;;;;;;2364363;54;20977;-70
2022/09/02 12:19:17;;;;;;;4.43;0.68;;;27.60;44.60;;;;;;2616434;52;21514;-69
2022/09/02 12:22:25;;;;;;;2.15;0.70;;;27.60;44.10;;;;;;2364809;53;20979;-69
2022/09/02 12:24:55;;;;;;;1.65;0.52;;;27.70;44.10;;;;;;2362016;54;21750;-69
2022/09/02 12:27:32;;;;;;;1.95;0.60;;;27.70;44.40;;;;;;2365766;54;20930;-69
2022/09/02 12:29:59;;;;;;;1.58;0.70;;;27.80;44.50;;;;;;2364746;53;20993;-71
2022/09/02 12:35:52;;;;;;;;;;;27.90;42.90;;;;;;2369446;54;21630;-69
2022/09/02 12:38:24;;;;;;;0.90;0.40;;;28.00;44.10;;;;;;2365681;54;20544;-71
2022/09/02 12:40:54;;;;;;;1.33;0.52;;;28.00;43.80;;;;;;2607623;52;21460;-69
2022/09/02 12:43:31;;;;;;;2.37;0.70;;;28.10;43.80;;;;;;2361327;54;20930;-68
2022/09/02 12:46:17;;;;;;;1.10;0.50;;;28.10;43.50;;;;;;2364548;54;20989;-72
2022/09/02 12:48:48;;;;;;;2.15;0.50;;;28.10;43.30;;;;;;2364556;53;21728;-69
2022/09/02 12:58:11;;;;;;;1.70;0.73;;;28.20;43.20;;;;;;2359909;53;21528;-69
2022/09/02 13:01:30;;;;;;;1.17;0.60;;;28.40;43.70;;;;;;2364293;54;21018;-69
2022/09/02 13:04:21;;;;;;;0.90;0.47;;;28.40;42.40;;;;;;2337848;54;21040;-70
2022/09/02 13:09:51;;;;;;;1.17;0.50;;;28.50;42.20;;;;;;2337424;54;20960;-69
2022/09/02 13:17:20;;;;;;;0.95;0.40;;;28.50;42.00;;;;;;2336736;53;21825;-69
2022/09/02 13:20:48;;;;;;;1.17;0.40;;;28.60;43.10;;;;;;2337555;54;21052;-69
2022/09/02 13:25:18;;;;;;;1.33;0.60;;;28.70;42.20;;;;;;2357191;54;20934;-68
2022/09/02 13:28:16;;;;;;;1.12;0.50;;;28.90;42.30;;;;;;2366292;53;21010;-70
2022/09/02 13:34:14;;;;;;;2.10;0.70;;;29.00;41.60;;;;;;2366568;53;22028;-69
2022/09/02 13:36:42;;;;;;;1.33;0.50;;;29.00;42.10;;;;;;2362264;53;21232;-71
2022/09/02 13:39:19;;;;;;;1.40;0.60;;;29.10;42.30;;;;;;2356793;53;21377;-69
2022/09/02 13:41:48;;;;;;;0.98;0.50;;;29.10;41.80;;;;;;2364848;54;21074;-69
2022/09/02 13:44:30;;;;;;;1.02;0.50;;;29.10;42.20;;;;;;2365102;54;21037;-70
2022/09/02 13:47:02;;;;;;;1.60;0.60;;;29.10;42.20;;;;;;2365923;53;20978;-69
2022/09/02 13:49:35;;;;;;;1.40;0.60;;;29.20;42.40;;;;;;2361368;54;21172;-68
2022/09/02 13:52:04;;;;;;;1.92;0.80;;;29.30;41.60;;;;;;2364917;54;20929;-68
2022/09/02 13:54:35;;;;;;;1.20;0.60;;;29.30;41.40;;;;;;2364137;53;20957;-69
2022/09/02 13:57:03;;;;;;;1.02;0.60;;;29.30;40.90;;;;;;2363976;53;20891;-69
2022/09/02 13:59:32;;;;;;;2.20;0.77;;;29.40;40.80;;;;;;2364435;54;21041;-68
2022/09/02 14:04:51;;;;;;;1.37;0.60;;;29.40;40.80;;;;;;2364791;54;21037;-69
2022/09/02 14:07:38;;;;;;;1.33;0.50;;;29.50;40.10;;;;;;2399760;52;21034;-73
2022/09/02 14:10:07;;;;;;;1.17;0.57;;;29.60;40.20;;;;;;2365151;54;20913;-68
2022/09/02 14:12:34;;;;;;;2.05;0.73;;;29.70;40.60;;;;;;2368370;52;21688;-69
2022/09/02 14:15:01;;;;;;;1.42;0.57;;;29.70;40.90;;;;;;2364783;54;20982;-71
2022/09/02 14:17:27;;;;;;;1.45;0.55;;;29.70;40.70;;;;;;2364698;53;20918;-68
2022/09/02 14:23:26;;;;;;;1.67;0.62;;;29.70;40.30;;;;;;2364681;53;21073;-68
2022/09/02 14:25:56;;;;;;;1.73;0.50;;;29.90;40.40;;;;;;2364232;54;21001;-72